createdAt,value
2022-08-14T00:01:54.943Z,99879.75
2022-08-14T00:04:36.029Z,99888.25
2022-08-14T00:07:14.067Z,99887.44
2022-08-14T00:10:01.480Z,99884.59
2022-08-14T00:12:37.764Z,99877.31
2022-08-14T00:15:19.392Z,99882.59
2022-08-14T00:17:53.150Z,99880.97
2022-08-14T00:20:30.771Z,99880.56
2022-08-14T00:23:12.383Z,99883.00
2022-08-14T00:25:58.591Z,99879.75
2022-08-14T00:28:29.185Z,99878.16
2022-08-14T00:31:02.006Z,99876.97
2022-08-14T00:33:52.123Z,99870.09
2022-08-14T00:36:35.040Z,99874.16
2022-08-14T00:39:04.804Z,99870.09
2022-08-14T00:41:33.970Z,99869.28
2022-08-14T00:44:01.466Z,99872.47
2022-08-14T00:46:32.674Z,99872.47
2022-08-14T00:49:02.144Z,99878.94
2022-08-14T00:51:34.509Z,99873.25
2022-08-14T00:54:11.028Z,99877.31
2022-08-14T00:56:49.505Z,99873.22
2022-08-14T00:59:16.302Z,99870.78
2022-08-14T01:01:44.591Z,99874.00
2022-08-14T01:04:52.453Z,99872.38
2022-08-14T01:06:59.334Z,99871.50
2022-08-14T01:09:26.723Z,99873.09
2022-08-14T01:12:03.297Z,99873.09
2022-08-14T01:14:31.293Z,99875.06
2022-08-14T01:17:00.413Z,99879.94
2022-08-14T01:19:46.805Z,99872.66
2022-08-14T01:22:18.859Z,99880.28
2022-08-14T01:24:47.050Z,99876.25
2022-08-14T01:27:24.196Z,99886.34
2022-08-14T01:30:01.416Z,99874.97
2022-08-14T01:32:37.402Z,99872.94
2022-08-14T01:35:19.906Z,99873.72
2022-08-14T01:37:57.615Z,99880.19
2022-08-14T01:40:37.037Z,99880.19
2022-08-14T01:43:15.890Z,99880.16
2022-08-14T01:45:57.973Z,99887.44
2022-08-14T01:48:37.637Z,99889.44
2022-08-14T01:51:19.191Z,99887.44
2022-08-14T01:53:50.474Z,99886.63
2022-08-14T01:56:37.475Z,99889.84
2022-08-14T01:59:22.253Z,99891.84
2022-08-14T02:01:58.016Z,99882.53
2022-08-14T02:04:56.026Z,99894.69
2022-08-14T02:07:34.211Z,99889.78
2022-08-14T02:10:06.872Z,99893.38
2022-08-14T02:12:34.017Z,99896.22
2022-08-14T02:15:01.968Z,99896.22
2022-08-14T02:17:34.048Z,99900.66
2022-08-14T02:20:01.046Z,99901.84
2022-08-14T02:22:33.136Z,99898.63
2022-08-14T02:25:01.558Z,99902.66
2022-08-14T02:28:25.370Z,99898.91
2022-08-14T02:30:17.319Z,99898.97
2022-08-14T02:32:46.037Z,99905.06
2022-08-14T02:35:18.901Z,99901.84
2022-08-14T02:37:50.065Z,99904.28
2022-08-14T02:40:19.190Z,99897.81
2022-08-14T02:42:54.546Z,99889.69
2022-08-14T02:45:33.404Z,99900.66
2022-08-14T02:48:10.080Z,99905.91
2022-08-14T02:50:39.287Z,99898.69
2022-08-14T02:53:06.457Z,99904.81
2022-08-14T02:55:35.822Z,99906.84
2022-08-14T02:58:05.955Z,99911.34
2022-08-14T03:00:39.877Z,99908.56
2022-08-14T03:03:10.348Z,99902.88
2022-08-14T03:05:41.237Z,99909.41
2022-08-14T03:08:16.230Z,99918.28
2022-08-14T03:10:49.066Z,99924.34
2022-08-14T03:13:20.777Z,99924.00
2022-08-14T03:15:56.186Z,99924.84
2022-08-14T03:18:31.273Z,99919.22
2022-08-14T03:21:07.935Z,99924.56
2022-08-14T03:23:38.516Z,99922.97
2022-08-14T03:26:12.658Z,99914.50
2022-08-14T03:28:52.241Z,99914.13
2022-08-14T03:31:25.946Z,99919.41
2022-08-14T03:33:54.390Z,99917.78
2022-08-14T03:37:28.834Z,99917.81
2022-08-14T03:39:22.706Z,99916.59
2022-08-14T03:41:53.817Z,99917.81
2022-08-14T03:45:26.285Z,99921.03
2022-08-14T03:47:08.444Z,99913.75
2022-08-14T03:49:40.419Z,99916.59
2022-08-14T03:52:37.894Z,99915.38
2022-08-14T03:54:55.751Z,99909.72
2022-08-14T03:57:23.719Z,99913.78
2022-08-14T03:59:51.058Z,99910.16
2022-08-14T04:02:33.377Z,99910.56
2022-08-14T04:05:11.563Z,99906.50
2022-08-14T04:07:39.537Z,99905.72
2022-08-14T04:10:17.143Z,99919.13
2022-08-14T04:12:51.660Z,99920.75
2022-08-14T04:15:20.194Z,99919.50
2022-08-14T04:17:50.387Z,99913.88
2022-08-14T04:20:25.469Z,99923.56
2022-08-14T04:22:55.505Z,99922.75
2022-08-14T04:25:22.697Z,99925.22
2022-08-14T04:28:02.377Z,99926.00
2022-08-14T04:30:32.616Z,99922.75
2022-08-14T04:33:06.425Z,99921.97
2022-08-14T04:35:56.489Z,99924.38
2022-08-14T04:38:43.513Z,99926.41
2022-08-14T04:41:32.746Z,99925.59
2022-08-14T04:43:59.591Z,99922.31
2022-08-14T04:46:56.851Z,99924.38
2022-08-14T04:49:15.529Z,99922.75
2022-08-14T04:51:55.544Z,99925.56
2022-08-14T04:54:26.995Z,99925.16
2022-08-14T04:56:57.614Z,99924.31
2022-08-14T04:59:25.197Z,99919.41
2022-08-14T05:01:56.982Z,99928.31
2022-08-14T05:04:25.241Z,99916.13
2022-08-14T05:06:55.229Z,99910.38
2022-08-14T05:09:29.086Z,99923.34
2022-08-14T05:12:00.637Z,99911.19
2022-08-14T05:14:55.247Z,99917.66
2022-08-14T05:17:28.770Z,99918.38
2022-08-14T05:21:04.355Z,99911.44
2022-08-14T05:22:59.902Z,99905.72
2022-08-14T05:25:30.690Z,99908.09
2022-08-14T05:28:19.289Z,99905.16
2022-08-14T05:30:52.708Z,99901.00
2022-08-14T05:33:21.192Z,99902.97
2022-08-14T05:35:49.111Z,99906.94
2022-08-14T05:38:22.471Z,99906.34
2022-08-14T05:41:00.689Z,99907.81
2022-08-14T05:43:40.853Z,99905.31
2022-08-14T05:46:15.376Z,99906.50
2022-08-14T05:48:42.992Z,99902.44
2022-08-14T05:51:10.372Z,99904.78
2022-08-14T05:53:37.349Z,99903.09
2022-08-14T05:56:09.374Z,99898.91
2022-08-14T05:58:41.460Z,99886.09
2022-08-14T06:01:09.635Z,99897.03
2022-08-14T06:03:37.253Z,99891.91
2022-08-14T06:06:07.704Z,99896.81
2022-08-14T06:08:41.500Z,99898.53
2022-08-14T06:11:09.506Z,99895.81
2022-08-14T06:13:45.040Z,99900.81
2022-08-14T06:16:17.817Z,99886.59
2022-08-14T06:18:51.982Z,99892.94
2022-08-14T06:21:23.486Z,99896.72
2022-08-14T06:23:50.978Z,99893.56
2022-08-14T06:26:20.889Z,99899.09
2022-08-14T06:28:52.031Z,99890.34
2022-08-14T06:31:21.067Z,99893.97
2022-08-14T06:35:10.611Z,99886.88
2022-08-14T06:36:37.813Z,99891.88
2022-08-14T06:39:04.679Z,99892.78
2022-08-14T06:41:58.355Z,99895.59
2022-08-14T06:44:30.667Z,99895.06
2022-08-14T06:47:00.368Z,99892.75
2022-08-14T06:49:27.485Z,99895.75
2022-08-14T06:51:57.535Z,99907.09
2022-08-14T06:54:31.755Z,99906.22
2022-08-14T06:56:59.036Z,99896.00
2022-08-14T06:59:26.313Z,99888.59
2022-08-14T07:02:13.199Z,99894.13
2022-08-14T07:04:59.101Z,99895.78
2022-08-14T07:07:28.704Z,99895.53
2022-08-14T07:09:56.121Z,99892.38
2022-08-14T07:12:34.881Z,99889.97
2022-08-14T07:15:11.128Z,99895.25
2022-08-14T07:17:46.705Z,99889.41
2022-08-14T07:20:30.571Z,99888.72
2022-08-14T07:23:07.352Z,99891.72
2022-08-14T07:25:37.524Z,99894.00
2022-08-14T07:28:20.357Z,99896.34
2022-08-14T07:30:51.490Z,99897.63
2022-08-14T07:33:24.550Z,99887.81
2022-08-14T07:35:59.258Z,99892.25
2022-08-14T07:38:35.685Z,99898.94
2022-08-14T07:41:11.865Z,99902.06
2022-08-14T07:43:47.526Z,99891.50
2022-08-14T07:46:29.451Z,99899.16
2022-08-14T07:48:58.729Z,99901.00
2022-08-14T07:51:34.057Z,99894.34
2022-08-14T07:54:04.405Z,99894.03
2022-08-14T07:56:47.134Z,99894.03
2022-08-14T07:59:18.531Z,99892.78
2022-08-14T08:01:48.439Z,99887.19
2022-08-14T08:04:24.301Z,99887.31
2022-08-14T08:06:53.232Z,99890.00
2022-08-14T08:09:32.149Z,99892.88
2022-08-14T08:12:05.125Z,99893.00
2022-08-14T08:14:56.335Z,99891.41
2022-08-14T08:17:24.964Z,99900.97
2022-08-14T08:19:52.331Z,99901.56
2022-08-14T08:22:21.378Z,99905.56
2022-08-14T08:24:50.434Z,99901.75
2022-08-14T08:27:21.415Z,99889.31
2022-08-14T08:29:51.019Z,99884.91
2022-08-14T08:32:18.727Z,99888.03
2022-08-14T08:34:47.071Z,99891.28
2022-08-14T08:37:15.341Z,99884.78
2022-08-14T08:40:02.405Z,99871.50
2022-08-14T08:42:31.580Z,99871.09
2022-08-14T08:45:11.821Z,99880.59
2022-08-14T08:47:40.502Z,99879.03
2022-08-14T08:50:23.465Z,99869.63
2022-08-14T08:53:09.581Z,99863.69
2022-08-14T08:55:45.043Z,99873.56
2022-08-14T08:58:24.824Z,99873.56
2022-08-14T09:00:57.871Z,99864.59
2022-08-14T09:03:27.925Z,99859.41
2022-08-14T09:06:01.342Z,99861.09
2022-08-14T09:08:36.957Z,99860.66
2022-08-14T09:11:19.461Z,99853.94
2022-08-14T09:13:53.156Z,99861.81
2022-08-14T09:16:23.690Z,99862.09
2022-08-14T09:18:53.175Z,99859.75
2022-08-14T09:21:24.191Z,99853.31
2022-08-14T09:24:28.183Z,99860.31
2022-08-14T09:26:49.584Z,99856.94
2022-08-14T09:29:22.905Z,99854.72
2022-08-14T09:31:58.085Z,99856.28
2022-08-14T09:35:03.919Z,99859.06
2022-08-14T09:37:45.155Z,99851.88
2022-08-14T09:40:21.745Z,99847.34
2022-08-14T09:43:14.778Z,99836.66
2022-08-14T09:45:52.870Z,99836.81
2022-08-14T09:48:29.878Z,99829.81
2022-08-14T09:50:58.613Z,99839.09
2022-08-14T09:54:19.035Z,99834.69
2022-08-14T09:56:46.944Z,99837.03
2022-08-14T09:59:25.592Z,99832.97
2022-08-14T10:01:57.415Z,99824.09
2022-08-14T10:04:36.710Z,99824.91
2022-08-14T10:07:08.576Z,99831.13
2022-08-14T10:09:59.491Z,99825.50
2022-08-14T10:12:53.163Z,99829.88
2022-08-14T10:15:26.066Z,99832.59
2022-08-14T10:18:17.607Z,99828.72
2022-08-14T10:21:01.014Z,99830.78
2022-08-14T10:23:40.014Z,99829.34
2022-08-14T10:26:09.016Z,99832.31
2022-08-14T10:29:18.984Z,99825.00
2022-08-14T10:31:40.236Z,99829.38
2022-08-14T10:34:29.038Z,99822.16
2022-08-14T10:37:05.725Z,99834.28
2022-08-14T10:40:02.012Z,99834.59
2022-08-14T10:42:39.605Z,99829.84
2022-08-14T10:45:22.803Z,99822.94
2022-08-14T10:48:07.513Z,99829.97
2022-08-14T10:50:41.445Z,99826.16
2022-08-14T10:53:09.691Z,99832.41
2022-08-14T10:55:45.019Z,99829.16
2022-08-14T10:58:14.701Z,99826.91
2022-08-14T11:00:47.305Z,99828.41
2022-08-14T11:03:19.919Z,99823.97
2022-08-14T11:05:55.950Z,99814.72
2022-08-14T11:08:34.136Z,99821.00
2022-08-14T11:11:04.163Z,99823.09
2022-08-14T11:13:31.588Z,99823.41
2022-08-14T11:16:01.285Z,99817.81
2022-08-14T11:18:36.320Z,99821.47
2022-08-14T11:21:09.351Z,99819.78
2022-08-14T11:23:39.708Z,99818.94
2022-08-14T11:26:10.314Z,99813.41
2022-08-14T11:28:47.381Z,99819.63
2022-08-14T11:31:25.747Z,99824.66
2022-08-14T11:33:58.617Z,99818.34
2022-08-14T11:36:57.212Z,99826.34
2022-08-14T11:39:22.970Z,99819.22
2022-08-14T11:42:56.921Z,99812.41
2022-08-14T11:45:10.984Z,99821.50
2022-08-14T11:47:43.859Z,99815.22
2022-08-14T11:50:36.937Z,99809.66
2022-08-14T11:53:06.859Z,99815.00
2022-08-14T11:55:39.143Z,99820.63
2022-08-14T11:58:11.959Z,99812.28
2022-08-14T12:00:50.085Z,99807.59
2022-08-14T12:03:37.642Z,99809.44
2022-08-14T12:06:29.266Z,99802.69
2022-08-14T12:09:08.273Z,99802.59
2022-08-14T12:11:43.212Z,99806.34
2022-08-14T12:14:13.357Z,99808.19
2022-08-14T12:17:12.128Z,99806.94
2022-08-14T12:19:54.010Z,99802.91
2022-08-14T12:22:44.392Z,99794.19
2022-08-14T12:25:29.892Z,99794.19
2022-08-14T12:28:01.704Z,99799.25
2022-08-14T12:30:43.161Z,99798.56
2022-08-14T12:33:33.384Z,99798.50
2022-08-14T12:36:06.188Z,99798.25
2022-08-14T12:38:37.809Z,99794.66
2022-08-14T12:41:10.600Z,99794.31
2022-08-14T12:43:59.727Z,99793.50
2022-08-14T12:46:40.742Z,99796.19
2022-08-14T12:49:11.387Z,99788.38
2022-08-14T12:51:38.170Z,99787.69
2022-08-14T12:54:26.915Z,99785.69
2022-08-14T12:57:19.523Z,99777.41
2022-08-14T12:59:47.681Z,99782.94
2022-08-14T13:02:38.814Z,99786.34
2022-08-14T13:05:15.101Z,99780.84
2022-08-14T13:07:45.656Z,99775.94
2022-08-14T13:10:47.459Z,99779.03
2022-08-14T13:13:15.235Z,99774.75
2022-08-14T13:15:57.305Z,99773.28
2022-08-14T13:18:28.111Z,99773.63
2022-08-14T13:21:01.146Z,99767.72
2022-08-14T13:23:36.223Z,99771.63
2022-08-14T13:26:04.625Z,99762.91
2022-08-14T13:28:41.344Z,99763.47
2022-08-14T13:31:31.058Z,99762.34
2022-08-14T13:34:01.444Z,99755.28
2022-08-14T13:36:51.862Z,99765.47
2022-08-14T13:39:17.023Z,99770.19
2022-08-14T13:41:44.676Z,99765.34
2022-08-14T13:44:15.548Z,99766.03
2022-08-14T13:46:51.103Z,99766.25
2022-08-14T13:49:19.451Z,99760.16
2022-08-14T13:51:59.161Z,99766.66
2022-08-14T13:54:31.351Z,99762.00
2022-08-14T13:57:01.244Z,99764.28
2022-08-14T13:59:38.112Z,99764.59
2022-08-14T14:02:07.871Z,99757.78
2022-08-14T14:04:39.804Z,99768.94
2022-08-14T14:07:14.205Z,99763.88
2022-08-14T14:09:52.791Z,99757.75
2022-08-14T14:12:38.248Z,99757.91
2022-08-14T14:15:13.878Z,99754.34
2022-08-14T14:17:43.981Z,99754.81
2022-08-14T14:20:35.258Z,99755.78
2022-08-14T14:23:11.741Z,99750.41
2022-08-14T14:25:50.442Z,99743.06
2022-08-14T14:28:24.459Z,99745.13
2022-08-14T14:30:54.545Z,99743.47
2022-08-14T14:33:45.219Z,99745.47
2022-08-14T14:36:15.173Z,99744.78
2022-08-14T14:39:04.267Z,99740.41
2022-08-14T14:41:43.802Z,99740.91
2022-08-14T14:44:16.028Z,99747.19
2022-08-14T14:46:49.577Z,99743.25
2022-08-14T14:49:21.842Z,99745.13
2022-08-14T14:51:51.145Z,99749.31
2022-08-14T14:54:31.580Z,99740.81
2022-08-14T14:57:04.957Z,99731.97
2022-08-14T14:59:37.560Z,99731.97
2022-08-14T15:02:07.805Z,99744.66
2022-08-14T15:04:38.074Z,99738.22
2022-08-14T15:07:06.893Z,99735.44
2022-08-14T15:09:34.064Z,99734.69
2022-08-14T15:12:16.302Z,99742.13
2022-08-14T15:14:54.780Z,99728.84
2022-08-14T15:17:25.110Z,99736.66
2022-08-14T15:19:56.655Z,99733.41
2022-08-14T15:22:25.094Z,99737.97
2022-08-14T15:24:52.250Z,99737.59
2022-08-14T15:27:26.234Z,99743.31
2022-08-14T15:29:53.983Z,99736.16
2022-08-14T15:32:23.264Z,99747.50
2022-08-14T15:34:51.927Z,99744.72
2022-08-14T15:37:23.096Z,99744.38
2022-08-14T15:39:52.597Z,99743.28
2022-08-14T15:42:23.136Z,99750.59
2022-08-14T15:44:57.768Z,99747.03
2022-08-14T15:47:30.066Z,99749.50
2022-08-14T15:50:00.317Z,99745.06
2022-08-14T15:52:35.237Z,99740.56
2022-08-14T15:55:15.308Z,99741.81
2022-08-14T15:58:02.045Z,99750.41
2022-08-14T16:00:51.855Z,99750.69
2022-08-14T16:03:27.916Z,99742.88
2022-08-14T16:06:15.643Z,99746.44
2022-08-14T16:08:50.418Z,99747.31
2022-08-14T16:11:27.483Z,99744.47
2022-08-14T16:13:59.868Z,99744.47
2022-08-14T16:16:34.592Z,99744.91
2022-08-14T16:19:19.459Z,99744.09
2022-08-14T16:22:01.709Z,99744.53
2022-08-14T16:25:02.069Z,99740.50
2022-08-14T16:27:39.327Z,99738.22
2022-08-14T16:30:25.062Z,99748.03
2022-08-14T16:32:57.690Z,99744.16
2022-08-14T16:35:42.222Z,99748.00
2022-08-14T16:38:44.886Z,99736.75
2022-08-14T16:41:27.296Z,99738.13
2022-08-14T16:44:04.717Z,99742.72
2022-08-14T16:46:35.290Z,99745.72
2022-08-14T16:49:07.655Z,99751.03
2022-08-14T16:51:38.332Z,99738.91
2022-08-14T16:54:34.116Z,99745.34
2022-08-14T16:57:22.860Z,99749.53
2022-08-14T16:59:57.626Z,99752.47
2022-08-14T17:02:42.960Z,99751.66
2022-08-14T17:05:24.940Z,99747.19
2022-08-14T17:08:33.279Z,99754.50
2022-08-14T17:11:11.116Z,99760.25
2022-08-14T17:13:58.555Z,99768.47
2022-08-14T17:16:37.637Z,99764.50
2022-08-14T17:19:09.744Z,99762.94
2022-08-14T17:21:47.412Z,99776.84
2022-08-14T17:24:56.449Z,99776.56
2022-08-14T17:27:05.274Z,99774.72
2022-08-14T17:29:54.370Z,99778.78
2022-08-14T17:32:29.519Z,99771.97
2022-08-14T17:35:12.030Z,99780.50
2022-08-14T17:37:55.900Z,99786.22
2022-08-14T17:40:30.110Z,99783.88
2022-08-14T17:43:02.382Z,99788.00
2022-08-14T17:45:41.179Z,99780.72
2022-08-14T17:49:15.559Z,99788.19
2022-08-14T17:51:23.872Z,99789.47
2022-08-14T17:54:02.933Z,99783.03
2022-08-14T17:56:33.227Z,99781.78
2022-08-14T17:59:05.984Z,99783.22
2022-08-14T18:01:46.443Z,99782.75
2022-08-14T18:04:24.795Z,99782.38
2022-08-14T18:07:16.352Z,99784.41
2022-08-14T18:10:00.432Z,99784.00
2022-08-14T18:12:47.880Z,99783.69
2022-08-14T18:15:18.564Z,99785.69
2022-08-14T18:17:53.135Z,99790.94
2022-08-14T18:21:39.832Z,99786.94
2022-08-14T18:23:13.749Z,99782.94
2022-08-14T18:25:52.888Z,99778.84
2022-08-14T18:28:48.226Z,99780.44
2022-08-14T18:31:20.966Z,99782.94
2022-08-14T18:33:56.793Z,99784.59
2022-08-14T18:36:47.129Z,99784.97
2022-08-14T18:39:24.650Z,99783.53
2022-08-14T18:41:54.117Z,99778.53
2022-08-14T18:44:54.831Z,99786.63
2022-08-14T18:47:26.060Z,99788.19
2022-08-14T18:49:57.963Z,99786.91
2022-08-14T18:52:39.965Z,99784.44
2022-08-14T18:55:18.619Z,99784.06
2022-08-14T18:58:27.448Z,99787.31
2022-08-14T19:00:58.752Z,99794.75
2022-08-14T19:03:36.781Z,99786.63
2022-08-14T19:06:05.101Z,99785.88
2022-08-14T19:08:42.833Z,99787.47
2022-08-14T19:11:50.416Z,99797.28
2022-08-14T19:14:46.298Z,99786.78
2022-08-14T19:18:13.782Z,99789.25
2022-08-14T19:21:00.098Z,99792.56
2022-08-14T19:23:42.240Z,99789.72
2022-08-14T19:26:54.411Z,99798.75
2022-08-14T19:29:38.135Z,99794.66
2022-08-14T19:32:39.159Z,99786.16
2022-08-14T19:35:55.215Z,99791.50
2022-08-14T19:39:11.997Z,99791.09
2022-08-14T19:41:40.830Z,99799.31
2022-08-14T19:44:19.601Z,99797.81
2022-08-14T19:47:00.489Z,99792.06
2022-08-14T19:50:09.125Z,99794.47
2022-08-14T19:52:29.618Z,99800.59
2022-08-14T19:54:57.825Z,99804.66
2022-08-14T19:57:36.079Z,99803.88
2022-08-14T20:00:28.451Z,99805.09
2022-08-14T20:03:11.301Z,99809.19
2022-08-14T20:05:45.607Z,99806.75
2022-08-14T20:11:01.313Z,99796.97
2022-08-14T20:11:14.309Z,99807.59
2022-08-14T20:14:20.496Z,99815.75
2022-08-14T20:16:54.286Z,99811.72
2022-08-14T20:19:29.188Z,99815.81
2022-08-14T20:22:34.997Z,99813.41
2022-08-14T20:24:50.009Z,99811.81
2022-08-14T20:27:39.619Z,99814.28
2022-08-14T20:33:07.890Z,99812.72
2022-08-14T20:35:43.722Z,99812.34
2022-08-14T20:38:29.641Z,99811.94
2022-08-14T20:41:09.670Z,99815.22
2022-08-14T20:43:59.756Z,99812.03
2022-08-14T20:46:31.320Z,99812.06
2022-08-14T20:49:08.649Z,99817.75
2022-08-14T20:51:54.521Z,99822.63
2022-08-14T20:54:36.429Z,99825.91
2022-08-14T20:57:17.657Z,99822.72
2022-08-14T20:59:57.250Z,99821.91
2022-08-14T21:02:30.507Z,99828.13
2022-08-14T21:05:16.239Z,99823.59
2022-08-14T21:07:44.653Z,99817.94
2022-08-14T21:10:33.984Z,99820.38
2022-08-14T21:13:27.882Z,99823.66
2022-08-14T21:15:57.291Z,99823.66
2022-08-14T21:18:31.795Z,99836.66
2022-08-14T21:21:01.425Z,99826.13
2022-08-14T21:23:55.207Z,99834.66
2022-08-14T21:26:51.254Z,99828.19
2022-08-14T21:29:13.586Z,99832.78
2022-08-14T21:31:55.755Z,99831.94
2022-08-14T21:34:27.400Z,99833.53
2022-08-14T21:37:07.878Z,99826.69
2022-08-14T21:39:37.372Z,99831.97
2022-08-14T21:42:06.300Z,99828.75
2022-08-14T21:44:35.833Z,99832.03
2022-08-14T21:47:16.557Z,99832.88
2022-08-14T21:49:47.896Z,99831.28
2022-08-14T21:52:50.716Z,99829.63
2022-08-14T21:55:10.376Z,99824.81
2022-08-14T21:57:56.484Z,99835.38
2022-08-14T22:00:42.489Z,99829.31
2022-08-14T22:03:17.330Z,99836.25
2022-08-14T22:05:49.931Z,99825.72
2022-08-14T22:08:18.328Z,99829.81
2022-08-14T22:10:51.517Z,99831.47
2022-08-14T22:13:24.654Z,99827.38
2022-08-14T22:15:58.185Z,99829.06
2022-08-14T22:18:27.217Z,99833.97
2022-08-14T22:20:57.504Z,99837.22
2022-08-14T22:23:25.865Z,99833.13
2022-08-14T22:25:55.301Z,99834.38
2022-08-14T22:28:33.211Z,99844.53
2022-08-14T22:31:10.285Z,99829.94
2022-08-14T22:33:39.139Z,99841.31
2022-08-14T22:36:26.309Z,99838.88
2022-08-14T22:38:54.746Z,99840.50
2022-08-14T22:41:27.563Z,99839.72
2022-08-14T22:44:02.198Z,99845.41
2022-08-14T22:46:29.112Z,99834.84
2022-08-14T22:48:57.575Z,99842.97
2022-08-14T22:51:27.706Z,99838.91
2022-08-14T22:53:55.872Z,99842.16
2022-08-14T22:56:29.523Z,99839.69
2022-08-14T22:59:02.066Z,99839.69
2022-08-14T23:01:56.139Z,99846.63
2022-08-14T23:04:34.929Z,99842.19
2022-08-14T23:07:14.492Z,99838.53
2022-08-14T23:09:57.500Z,99836.50
2022-08-14T23:12:34.776Z,99842.59
2022-08-14T23:15:02.260Z,99837.31
2022-08-14T23:17:39.616Z,99834.06
2022-08-14T23:20:19.120Z,99837.31
2022-08-14T23:22:48.830Z,99833.28
2022-08-14T23:25:32.420Z,99830.00
2022-08-14T23:28:07.190Z,99838.56
2022-08-14T23:30:55.365Z,99843.03
2022-08-14T23:33:22.378Z,99844.69
2022-08-14T23:35:59.050Z,99835.38
2022-08-14T23:38:31.059Z,99839.81
2022-08-14T23:41:00.927Z,99833.34
2022-08-14T23:43:30.911Z,99838.22
2022-08-14T23:46:00.763Z,99835.78
2022-08-14T23:48:29.808Z,99844.78
2022-08-14T23:50:58.917Z,99846.38
2022-08-14T23:53:47.806Z,99838.25
2022-08-14T23:56:31.806Z,99846.78
2022-08-14T23:59:01.359Z,99853.28
